Warnow Moon — A8VX3 — position and weather

sailwx.info

Track history (hours):
 
Tides and Currents Weather Stations Pressure Air Temp Water Temp Dewpoint Dewpoint Depression Visibility Wind Speed Wind Dir Waves Ship Positions

Warnow Moon

Last reported at 2016-Aug-24 11:33 UTC. Time now 2016-Aug-24 11:58 UTC.
Position N 54°02' E 004°23'.

Length 180 m; draft 7 m.

Type: Cargo ship. MMSI: 636016909.

Date/timePositionNaut miles runAvg speedWind from/ knotsBaromVisibWave heightAir tempDewpointWater temp
2016-Aug-24 11:33N 54°02' E 004°23'1313.4
2016-Aug-24 10:33N 54°11' E 004°40'1313.5
2016-Aug-24 09:33N 54°21' E 004°56'1413.8
2016-Aug-24 08:33N 54°30' E 005°13'1414.0
2016-Aug-24 07:33N 54°40' E 005°31'1414.1
2016-Aug-24 06:33N 54°50' E 005°49'2813.8
2016-Aug-24 04:33N 55°08' E 006°24'1413.7
2016-Aug-24 03:33N 55°18' E 006°42'1313.5
2016-Aug-24 02:33N 55°22' E 007°04'1413.8
2016-Aug-24 01:33N 55°22' E 007°29'1313.4
2016-Aug-24 00:33N 55°23' E 007°52'1212.3
2016-Aug-23 23:33N 55°25' E 008°13'9 8.7
2016-Aug-23 22:33N 55°27' E 008°29'0 0.0
2016-Aug-23 21:33N 55°27' E 008°28'0 0.0
2016-Aug-23 20:33N 55°27' E 008°28'0 0.0
2016-Aug-23 19:33N 55°27' E 008°28'0 0.0
2016-Aug-23 18:24N 55°27' E 008°28'0 0.0
2016-Aug-23 17:18N 55°27' E 008°28'0 0.0
2016-Aug-23 16:33N 55°27' E 008°28'0 0.0
2016-Aug-23 15:30N 55°27' E 008°28'0 0.0
2016-Aug-23 14:30N 55°27' E 008°28'0 0.0
2016-Aug-23 13:21N 55°27' E 008°28'0 0.0
2016-Aug-23 12:33N 55°27' E 008°28'0 0.0
2016-Aug-23 11:33N 55°27' E 008°28'0 0.0
2016-Aug-23 09:33N 55°27' E 008°28'0 0.0
2016-Aug-23 08:33N 55°27' E 008°28'0 0.0
2016-Aug-23 07:33N 55°27' E 008°28'0 0.0
2016-Aug-23 06:33N 55°27' E 008°28'0 0.0
2016-Aug-23 05:24N 55°27' E 008°28'0 0.0
2016-Aug-23 04:27N 55°27' E 008°28'0 0.0
2016-Aug-23 03:12N 55°27' E 008°28'0 0.0
2016-Aug-23 02:27N 55°27' E 008°28'0 0.0
2016-Aug-23 01:24N 55°27' E 008°28'0 0.0
2016-Aug-23 00:30N 55°27' E 008°28'0 0.0
2016-Aug-22 23:27N 55°27' E 008°28'0 0.0
2016-Aug-22 22:27N 55°27' E 008°28'0 0.0
2016-Aug-22 21:33N 55°27' E 008°28'0 0.0
2016-Aug-22 20:30N 55°27' E 008°28'0 0.0
2016-Aug-22 19:30N 55°27' E 008°28'0 0.0
2016-Aug-22 18:33N 55°27' E 008°28'0 0.0
2016-Aug-22 17:33N 55°27' E 008°28'0 0.0
2016-Aug-22 16:33N 55°27' E 008°28'0 0.0
2016-Aug-22 15:30N 55°27' E 008°28'0 0.0
2016-Aug-22 14:27N 55°27' E 008°28'0 0.0
2016-Aug-22 13:33N 55°27' E 008°28'0 0.0
2016-Aug-22 12:30N 55°27' E 008°28'0 0.0
2016-Aug-22 11:30N 55°27' E 008°28'0 0.0
2016-Aug-22 10:27N 55°27' E 008°28'0 0.0
2016-Aug-22 09:30N 55°27' E 008°28'0 0.0
2016-Aug-22 08:12N 55°27' E 008°28'0 0.0
2016-Aug-22 07:33N 55°27' E 008°28'0 0.0
2016-Aug-22 06:21N 55°27' E 008°28'0 0.0
2016-Aug-22 04:21N 55°27' E 008°28'0 0.0
2016-Aug-22 03:21N 55°27' E 008°28'0 0.0
2016-Aug-22 02:21N 55°27' E 008°28'0 0.0
2016-Aug-22 01:09N 55°27' E 008°28'0 0.0
2016-Aug-22 00:21N 55°27' E 008°28'0 0.0
2016-Aug-21 23:21N 55°27' E 008°28'0 0.0
2016-Aug-21 22:27N 55°27' E 008°28'0 0.0
2016-Aug-21 21:24N 55°27' E 008°28'0 0.0
2016-Aug-21 20:30N 55°27' E 008°28'0 0.0
2016-Aug-21 19:27N 55°27' E 008°28'0 0.0
2016-Aug-21 18:33N 55°27' E 008°28'0 0.0
2016-Aug-21 17:18N 55°27' E 008°28'0 0.0
2016-Aug-21 16:18N 55°27' E 008°28'0 0.0
2016-Aug-21 15:30N 55°27' E 008°28'3 3.7
2016-Aug-21 14:33N 55°29' E 008°23'1110.5
2016-Aug-21 13:33N 55°24' E 008°07'10 9.5
2016-Aug-21 12:33N 55°25' E 007°51'1212.2
2016-Aug-21 11:33N 55°31' E 007°32'1212.4
2016-Aug-21 10:33N 55°37' E 007°13'36412.8
2016-Aug-20 06:09N 58°31' W 002°35'812.7
2016-Aug-20 05:33N 58°35' W 002°47'1010.2
2016-Aug-20 04:34N 58°41' W 003°02'5 5.2
2016-Aug-20 03:33N 58°43' W 003°12'8 8.1
2016-Aug-20 02:33N 58°44' W 003°27'1212.4
2016-Aug-20 01:33N 58°45' W 003°51'1312.7
2016-Aug-20 00:33N 58°45' W 004°15'  
Track history (hours):
 
Tides and Currents Weather Stations Pressure Air Temp Water Temp Dewpoint Dewpoint Depression Visibility Wind Speed Wind Dir Waves Ship Positions

Warnow Moon

Last reported at 2016-Aug-24 11:33 UTC. Time now 2016-Aug-24 11:58 UTC.
Position N 54°02' E 004°23'.

Length 180 m; draft 7 m.

Type: Cargo ship. MMSI: 636016909.

Date/timePositionNaut miles runAvg speedWind from/ knotsBaromVisibWave heightAir tempDewpointWater temp
2016-Aug-24 11:33N 54°02' E 004°23'1313.4
2016-Aug-24 10:33N 54°11' E 004°40'1313.5
2016-Aug-24 09:33N 54°21' E 004°56'1413.8
2016-Aug-24 08:33N 54°30' E 005°13'1414.0
2016-Aug-24 07:33N 54°40' E 005°31'1414.1
2016-Aug-24 06:33N 54°50' E 005°49'2813.8
2016-Aug-24 04:33N 55°08' E 006°24'1413.7
2016-Aug-24 03:33N 55°18' E 006°42'1313.5
2016-Aug-24 02:33N 55°22' E 007°04'1413.8
2016-Aug-24 01:33N 55°22' E 007°29'1313.4
2016-Aug-24 00:33N 55°23' E 007°52'1212.3
2016-Aug-23 23:33N 55°25' E 008°13'9 8.7
2016-Aug-23 22:33N 55°27' E 008°29'0 0.0
2016-Aug-23 21:33N 55°27' E 008°28'0 0.0
2016-Aug-23 20:33N 55°27' E 008°28'0 0.0
2016-Aug-23 19:33N 55°27' E 008°28'0 0.0
2016-Aug-23 18:24N 55°27' E 008°28'0 0.0
2016-Aug-23 17:18N 55°27' E 008°28'0 0.0
2016-Aug-23 16:33N 55°27' E 008°28'0 0.0
2016-Aug-23 15:30N 55°27' E 008°28'0 0.0
2016-Aug-23 14:30N 55°27' E 008°28'0 0.0
2016-Aug-23 13:21N 55°27' E 008°28'0 0.0
2016-Aug-23 12:33N 55°27' E 008°28'0 0.0
2016-Aug-23 11:33N 55°27' E 008°28'0 0.0
2016-Aug-23 09:33N 55°27' E 008°28'0 0.0
2016-Aug-23 08:33N 55°27' E 008°28'0 0.0
2016-Aug-23 07:33N 55°27' E 008°28'0 0.0
2016-Aug-23 06:33N 55°27' E 008°28'0 0.0
2016-Aug-23 05:24N 55°27' E 008°28'0 0.0
2016-Aug-23 04:27N 55°27' E 008°28'0 0.0
2016-Aug-23 03:12N 55°27' E 008°28'0 0.0
2016-Aug-23 02:27N 55°27' E 008°28'0 0.0
2016-Aug-23 01:24N 55°27' E 008°28'0 0.0
2016-Aug-23 00:30N 55°27' E 008°28'0 0.0
2016-Aug-22 23:27N 55°27' E 008°28'0 0.0
2016-Aug-22 22:27N 55°27' E 008°28'0 0.0
2016-Aug-22 21:33N 55°27' E 008°28'0 0.0
2016-Aug-22 20:30N 55°27' E 008°28'0 0.0
2016-Aug-22 19:30N 55°27' E 008°28'0 0.0
2016-Aug-22 18:33N 55°27' E 008°28'0 0.0
2016-Aug-22 17:33N 55°27' E 008°28'0 0.0
2016-Aug-22 16:33N 55°27' E 008°28'0 0.0
2016-Aug-22 15:30N 55°27' E 008°28'0 0.0
2016-Aug-22 14:27N 55°27' E 008°28'0 0.0
2016-Aug-22 13:33N 55°27' E 008°28'0 0.0
2016-Aug-22 12:30N 55°27' E 008°28'0 0.0
2016-Aug-22 11:30N 55°27' E 008°28'0 0.0
2016-Aug-22 10:27N 55°27' E 008°28'0 0.0
2016-Aug-22 09:30N 55°27' E 008°28'0 0.0
2016-Aug-22 08:12N 55°27' E 008°28'0 0.0
2016-Aug-22 07:33N 55°27' E 008°28'0 0.0
2016-Aug-22 06:21N 55°27' E 008°28'0 0.0
2016-Aug-22 04:21N 55°27' E 008°28'0 0.0
2016-Aug-22 03:21N 55°27' E 008°28'0 0.0
2016-Aug-22 02:21N 55°27' E 008°28'0 0.0
2016-Aug-22 01:09N 55°27' E 008°28'0 0.0
2016-Aug-22 00:21N 55°27' E 008°28'0 0.0
2016-Aug-21 23:21N 55°27' E 008°28'0 0.0
2016-Aug-21 22:27N 55°27' E 008°28'0 0.0
2016-Aug-21 21:24N 55°27' E 008°28'0 0.0
2016-Aug-21 20:30N 55°27' E 008°28'0 0.0
2016-Aug-21 19:27N 55°27' E 008°28'0 0.0
2016-Aug-21 18:33N 55°27' E 008°28'0 0.0
2016-Aug-21 17:18N 55°27' E 008°28'0 0.0
2016-Aug-21 16:18N 55°27' E 008°28'0 0.0
2016-Aug-21 15:30N 55°27' E 008°28'3 3.7
2016-Aug-21 14:33N 55°29' E 008°23'1110.5
2016-Aug-21 13:33N 55°24' E 008°07'10 9.5
2016-Aug-21 12:33N 55°25' E 007°51'1212.2
2016-Aug-21 11:33N 55°31' E 007°32'1212.4
2016-Aug-21 10:33N 55°37' E 007°13'36412.8
2016-Aug-20 06:09N 58°31' W 002°35'812.7
2016-Aug-20 05:33N 58°35' W 002°47'1010.2
2016-Aug-20 04:34N 58°41' W 003°02'5 5.2
2016-Aug-20 03:33N 58°43' W 003°12'8 8.1
2016-Aug-20 02:33N 58°44' W 003°27'1212.4
2016-Aug-20 01:33N 58°45' W 003°51'1312.7
2016-Aug-20 00:33N 58°45' W 004°15'  

Dump ship's entire track history